Time;durP1;ratioP1;P1;durP2;ratioP2;P2;SDS_P1;SDS_P2;PMS_P1;PMS_P2;Temp;Humidity;BMP_temperature;BMP_pressure;BME280_temperature;BME280_humidity;BME280_pressure;Samples;Min_cycle;Max_cycle;Signal;HPM_P1;HPM_P2
2021/04/10 00:01:17;;;;;;;2.20;1.73;;;11.30;95.10;;;;;;5031935;28;20505;-93
2021/04/10 00:03:52;;;;;;;2.77;1.70;;;11.40;95.40;;;;;;5034221;28;20456;-92
2021/04/10 00:06:18;;;;;;;2.53;1.80;;;11.20;87.40;;;;;;5035528;28;20435;-90
2021/04/10 00:08:44;;;;;;;4.20;1.77;;;11.20;87.10;;;;;;5032053;28;20830;-93
2021/04/10 00:11:11;;;;;;;2.40;1.97;;;11.20;87.10;;;;;;5035340;28;20459;-92
2021/04/10 00:13:37;;;;;;;4.50;2.10;;;11.10;91.20;;;;;;5030417;28;20494;-93
2021/04/10 00:16:04;;;;;;;2.00;1.80;;;11.20;87.10;;;;;;5034633;28;20462;-91
2021/04/10 00:18:31;;;;;;;3.73;1.70;;;11.20;87.40;;;;;;5034240;28;20502;-91
2021/04/10 00:21:04;;;;;;;5.10;2.30;;;11.20;92.20;;;;;;5029310;28;20459;-90
2021/04/10 00:23:30;;;;;;;2.50;1.60;;;;;;;;;;5034196;28;20447;-92
2021/04/10 00:25:57;;;;;;;3.33;1.83;;;;;;;;;;5034394;28;20439;-92
2021/04/10 00:28:25;;;;;;;3.20;1.10;;;11.10;87.60;;;;;;5031158;28;20443;-93
2021/04/10 00:30:51;;;;;;;2.13;1.57;;;11.20;87.70;;;;;;5033898;28;20495;-92
2021/04/10 00:33:17;;;;;;;2.30;1.30;;;11.20;87.90;;;;;;5030160;28;20848;-90
2021/04/10 00:35:45;;;;;;;2.40;1.50;;;11.20;87.60;;;;;;5033938;28;20463;-91
2021/04/10 00:38:11;;;;;;;2.13;1.27;;;11.20;87.60;;;;;;5034022;28;20498;-91
2021/04/10 00:40:37;;;;;;;6.67;1.37;;;11.10;87.50;;;;;;5031391;28;20466;-91
2021/04/10 00:43:03;;;;;;;2.00;1.23;;;11.20;96.00;;;;;;5034207;28;20455;-91
2021/04/10 00:45:30;;;;;;;3.30;1.80;;;11.20;87.10;;;;;;5030944;28;20440;-92
2021/04/10 00:47:56;;;;;;;2.77;1.53;;;11.20;87.10;;;;;;5033322;28;20506;-93
2021/04/10 00:50:22;;;;;;;3.40;1.70;;;11.20;87.90;;;;;;5026208;28;20961;-91
2021/04/10 00:52:50;;;;;;;3.07;1.83;;;11.20;87.50;;;;;;5029944;28;20484;-92
2021/04/10 00:55:17;;;;;;;7.40;2.07;;;11.20;87.70;;;;;;5034447;28;20463;-91
2021/04/10 00:57:43;;;;;;;2.73;1.37;;;11.20;87.80;;;;;;5029602;28;20840;-90
2021/04/10 01:00:10;;;;;;;2.23;1.73;;;11.20;87.60;;;;;;5034163;28;20462;-91
2021/04/10 01:02:37;;;;;;;3.60;2.03;;;11.30;87.60;;;;;;5030975;28;20460;-94
2021/04/10 01:05:04;;;;;;;2.27;1.30;;;11.30;95.60;;;;;;5027373;28;20797;-91
2021/04/10 01:07:31;;;;;;;2.60;1.30;;;11.30;87.90;;;;;;5033923;28;20815;-92
2021/04/10 01:09:59;;;;;;;2.33;1.37;;;11.40;87.60;;;;;;5034360;28;20903;-91
2021/04/10 01:12:35;;;;;;;2.10;1.23;;;11.30;87.60;;;;;;5033926;28;20491;-92
2021/04/10 01:15:09;;;;;;;3.03;1.90;;;11.30;88.00;;;;;;5033480;28;20833;-92
2021/04/10 01:17:42;;;;;;;1.83;1.00;;;11.30;87.80;;;;;;5027067;28;20448;-92
2021/04/10 01:20:51;;;;;;;2.30;1.13;;;11.30;87.80;;;;;;5034036;28;20521;-92
2021/04/10 01:23:31;;;;;;;7.23;1.60;;;11.30;87.90;;;;;;5013809;28;20459;-91
2021/04/10 01:26:14;;;;;;;1.73;1.00;;;11.30;88.70;;;;;;5033977;28;20452;-93
2021/04/10 01:28:58;;;;;;;2.70;1.43;;;11.30;88.30;;;;;;5028491;28;20447;-92
2021/04/10 01:31:27;;;;;;;2.93;1.10;;;11.30;88.50;;;;;;5033366;28;20488;-91
2021/04/10 01:33:59;;;;;;;4.03;1.63;;;11.20;89.00;;;;;;5027065;28;20451;-90
2021/04/10 01:36:28;;;;;;;3.83;1.80;;;11.20;89.50;;;;;;5033295;28;20825;-91
2021/04/10 01:38:56;;;;;;;1.43;1.10;;;11.40;90.20;;;;;;5034467;28;20447;-91
2021/04/10 01:41:23;;;;;;;1.70;0.77;;;11.10;89.20;;;;;;5033375;28;20456;-90
2021/04/10 01:43:51;;;;;;;2.73;1.30;;;11.10;89.80;;;;;;5037332;28;20463;-91
2021/04/10 01:46:21;;;;;;;5.63;1.53;;;11.10;89.90;;;;;;5029839;28;20516;-91
2021/04/10 01:48:48;;;;;;;4.10;1.30;;;11.10;90.00;;;;;;5036366;28;20823;-92
2021/04/10 01:51:16;;;;;;;2.13;1.27;;;11.10;90.20;;;;;;5037733;28;20450;-92
2021/04/10 01:53:43;;;;;;;3.03;1.77;;;11.10;90.30;;;;;;5037814;28;20865;-90
2021/04/10 01:56:11;;;;;;;1.87;1.13;;;11.10;90.30;;;;;;5037696;28;20434;-91
2021/04/10 01:58:40;;;;;;;2.97;1.73;;;11.50;90.60;;;;;;5033720;28;20427;-92
2021/04/10 02:01:11;;;;;;;1.40;0.93;;;11.20;90.50;;;;;;5037154;28;20451;-92
2021/04/10 02:03:38;;;;;;;2.03;1.40;;;11.10;90.40;;;;;;5030698;28;20949;-93
2021/04/10 02:06:08;;;;;;;3.70;1.63;;;11.00;90.60;;;;;;5032396;28;20439;-91
2021/04/10 02:08:35;;;;;;;3.17;1.50;;;11.00;90.50;;;;;;5037164;28;20915;-92
2021/04/10 02:11:02;;;;;;;2.23;1.00;;;;;;;;;;5034107;28;20459;-92
2021/04/10 02:13:30;;;;;;;1.23;1.10;;;10.90;90.50;;;;;;5037178;28;20863;-93
2021/04/10 02:15:57;;;;;;;0.90;0.80;;;11.00;91.00;;;;;;5033939;28;20455;-91
2021/04/10 02:18:24;;;;;;;2.70;1.20;;;10.90;91.30;;;;;;5028684;28;20483;-91
2021/04/10 02:20:50;;;;;;;1.87;1.27;;;10.90;91.00;;;;;;5037080;28;20452;-90
2021/04/10 02:23:19;;;;;;;1.20;0.90;;;10.90;91.30;;;;;;5036887;28;20443;-91
2021/04/10 02:25:46;;;;;;;2.27;1.47;;;11.00;98.50;;;;;;5033909;28;20459;-92
2021/04/10 02:28:12;;;;;;;1.43;1.03;;;11.00;91.40;;;;;;5037230;28;20447;-93
2021/04/10 02:30:39;;;;;;;1.47;1.20;;;10.80;91.60;;;;;;5036947;28;20848;-91
2021/04/10 02:33:08;;;;;;;0.73;0.60;;;10.90;91.70;;;;;;5033273;28;20471;-91
2021/04/10 02:35:39;;;;;;;2.23;1.27;;;10.70;98.50;;;;;;5033624;28;20551;-92
2021/04/10 02:38:08;;;;;;;1.17;1.07;;;10.80;91.80;;;;;;5036693;28;20451;-92
2021/04/10 02:40:38;;;;;;;6.10;3.20;;;10.80;91.70;;;;;;5036819;28;20431;-94
2021/04/10 02:43:08;;;;;;;1.83;1.40;;;10.80;91.90;;;;;;5036458;28;20492;-91
2021/04/10 02:45:35;;;;;;;2.50;1.53;;;10.80;91.90;;;;;;5033488;28;20460;-92
2021/04/10 02:48:07;;;;;;;4.00;1.10;;;10.90;92.00;;;;;;5034210;28;20444;-91
2021/04/10 02:50:35;;;;;;;7.30;1.20;;;10.80;92.10;;;;;;5033270;28;20444;-91
2021/04/10 02:53:05;;;;;;;1.80;1.10;;;10.80;92.20;;;;;;5030442;28;20490;-91
2021/04/10 02:55:35;;;;;;;0.63;0.57;;;10.80;92.20;;;;;;5036673;28;20428;-92
2021/04/10 02:58:04;;;;;;;1.67;1.03;;;10.80;92.30;;;;;;5033114;28;20791;-92
2021/04/10 03:00:31;;;;;;;0.60;0.60;;;10.90;92.50;;;;;;5035982;28;20501;-93
2021/04/10 03:02:58;;;;;;;2.30;0.97;;;10.90;92.50;;;;;;5035448;28;20447;-92
2021/04/10 03:05:25;;;;;;;2.13;1.03;;;10.80;92.40;;;;;;5032785;28;20428;-94
2021/04/10 03:07:54;;;;;;;3.53;1.10;;;10.80;92.50;;;;;;5033183;28;20447;-93
2021/04/10 03:10:20;;;;;;;3.20;1.37;;;10.60;99.30;;;;;;5035958;28;20996;-91
2021/04/10 03:12:48;;;;;;;2.53;1.17;;;11.70;96.20;;;;;;5029226;28;20973;-90
2021/04/10 03:15:16;;;;;;;1.17;0.60;;;10.80;92.80;;;;;;5035929;28;20486;-91
2021/04/10 03:17:43;;;;;;;0.97;0.80;;;10.80;92.70;;;;;;5032558;28;20539;-93
2021/04/10 03:20:13;;;;;;;1.60;1.40;;;10.80;92.70;;;;;;5032866;28;20443;-92
2021/04/10 03:22:42;;;;;;;3.40;1.10;;;10.80;93.00;;;;;;5035583;28;20454;-92
2021/04/10 03:25:11;;;;;;;2.33;1.20;;;10.80;93.10;;;;;;5036064;28;20444;-92
2021/04/10 03:27:38;;;;;;;1.90;1.30;;;10.80;93.20;;;;;;5036267;28;20423;-90
2021/04/10 03:30:06;;;;;;;3.90;1.30;;;10.90;93.40;;;;;;5035598;28;20480;-91
2021/04/10 03:32:33;;;;;;;1.13;0.63;;;10.80;93.70;;;;;;5030378;28;20550;-93
2021/04/10 03:35:00;;;;;;;0.60;0.50;;;10.80;93.80;;;;;;5035827;28;20455;-93
2021/04/10 03:37:29;;;;;;;3.60;1.30;;;10.90;94.00;;;;;;5032949;28;20440;-90
2021/04/10 03:39:56;;;;;;;2.67;1.20;;;11.00;94.40;;;;;;5035476;28;20459;-90
2021/04/10 03:42:35;;;;;;;3.13;1.30;;;10.90;94.50;;;;;;5029957;28;20458;-92
2021/04/10 03:45:01;;;;;;;2.10;0.90;;;10.70;94.70;;;;;;5028737;28;20443;-91
2021/04/10 03:47:27;;;;;;;1.83;1.17;;;10.70;95.00;;;;;;5034463;28;20443;-91
2021/04/10 03:49:53;;;;;;;1.10;0.80;;;10.90;95.40;;;;;;5032497;28;20782;-92
2021/04/10 03:52:20;;;;;;;0.70;0.67;;;10.70;95.30;;;;;;5035538;28;20486;-91
2021/04/10 03:54:46;;;;;;;1.37;1.00;;;10.70;95.40;;;;;;5032413;28;20459;-91
2021/04/10 03:57:13;;;;;;;1.67;1.13;;;10.70;95.50;;;;;;5035257;28;20447;-91
2021/04/10 03:59:40;;;;;;;1.33;0.60;;;10.80;95.80;;;;;;5034814;28;20973;-93
2021/04/10 04:02:06;;;;;;;3.33;1.00;;;10.60;95.90;;;;;;5029223;28;20456;-93
2021/04/10 04:04:33;;;;;;;1.13;0.97;;;10.60;96.00;;;;;;5035134;28;20458;-91
2021/04/10 04:06:59;;;;;;;2.30;1.03;;;10.60;96.10;;;;;;5035168;28;20498;-92
2021/04/10 04:09:25;;;;;;;1.43;0.80;;;10.70;96.40;;;;;;5031960;28;20432;-93
2021/04/10 04:11:52;;;;;;;2.90;0.80;;;10.60;96.50;;;;;;5031878;28;20458;-92
2021/04/10 04:14:19;;;;;;;3.00;1.20;;;10.50;97.00;;;;;;5026773;28;20494;-90
2021/04/10 04:16:46;;;;;;;2.20;1.00;;;10.50;99.90;;;;;;5031100;28;20459;-91
2021/04/10 04:19:12;;;;;;;4.07;0.90;;;;;;;;;;5034765;28;20555;-92
2021/04/10 04:21:39;;;;;;;1.43;0.80;;;10.30;98.10;;;;;;5034867;28;20452;-90
2021/04/10 04:24:06;;;;;;;2.10;0.70;;;10.60;98.50;;;;;;5031980;28;20452;-90
2021/04/10 04:26:33;;;;;;;3.63;1.10;;;10.30;98.20;;;;;;5036488;28;20432;-93
2021/04/10 04:28:59;;;;;;;3.93;1.03;;;10.30;98.20;;;;;;5031151;28;20950;-91
2021/04/10 04:31:25;;;;;;;1.67;0.80;;;10.30;98.20;;;;;;5036258;28;20475;-94
2021/04/10 04:33:52;;;;;;;2.40;1.07;;;10.30;99.90;;;;;;5036181;28;20896;-93
2021/04/10 04:36:19;;;;;;;3.27;0.90;;;10.40;98.30;;;;;;5027609;28;20432;-90
2021/04/10 04:38:45;;;;;;;1.33;0.80;;;10.20;98.20;;;;;;5031585;28;20459;-92
2021/04/10 04:41:12;;;;;;;4.00;2.50;;;10.20;98.40;;;;;;5035501;28;20443;-91
2021/04/10 04:43:38;;;;;;;2.53;1.30;;;;;;;;;;5035082;28;20539;-92
2021/04/10 04:46:06;;;;;;;1.77;0.83;;;;;;;;;;5035321;28;20448;-92
2021/04/10 04:48:32;;;;;;;1.13;1.00;;;;;;;;;;5036329;28;20428;-91
2021/04/10 04:50:59;;;;;;;2.67;1.07;;;10.10;98.60;;;;;;5036804;28;20939;-89
2021/04/10 04:53:26;;;;;;;1.73;1.40;;;10.60;99.30;;;;;;5034439;28;20541;-92
2021/04/10 04:55:52;;;;;;;2.03;1.00;;;10.10;99.30;;;;;;5034803;28;20454;-91
2021/04/10 04:58:18;;;;;;;3.30;1.23;;;10.10;99.90;;;;;;5034483;28;20505;-93
2021/04/10 05:00:45;;;;;;;5.73;1.47;;;9.90;99.90;;;;;;5031088;28;20822;-92
2021/04/10 05:03:12;;;;;;;1.53;1.20;;;9.60;99.90;;;;;;5034977;28;20798;-93
2021/04/10 05:05:38;;;;;;;1.53;1.27;;;9.20;99.90;;;;;;5034478;28;20557;-92
2021/04/10 05:08:06;;;;;;;1.50;1.20;;;9.10;99.90;;;;;;5034417;28;20440;-91
2021/04/10 05:10:32;;;;;;;1.60;1.37;;;9.20;99.90;;;;;;5029118;28;20443;-91
2021/04/10 05:12:59;;;;;;;4.73;1.67;;;;;;;;;;5033224;28;21000;-92
2021/04/10 05:15:25;;;;;;;4.43;1.70;;;9.20;99.90;;;;;;5038310;28;20446;-93
2021/04/10 05:17:51;;;;;;;1.00;0.77;;;9.10;99.90;;;;;;5032601;28;20462;-93
2021/04/10 05:20:18;;;;;;;3.17;1.43;;;;;;;;;;5035442;28;20431;-93
2021/04/10 05:22:45;;;;;;;4.60;1.47;;;;;;;;;;5032549;28;20458;-92
2021/04/10 05:25:13;;;;;;;1.43;1.00;;;9.00;99.90;;;;;;5032625;28;20431;-93
2021/04/10 05:27:39;;;;;;;1.53;1.10;;;9.00;99.90;;;;;;5032702;28;20443;-93
2021/04/10 05:30:07;;;;;;;2.00;0.90;;;9.10;99.90;;;;;;5037631;28;20479;-92
2021/04/10 05:32:33;;;;;;;1.77;0.83;;;9.00;99.90;;;;;;5036843;28;20533;-91
2021/04/10 05:34:59;;;;;;;0.97;0.60;;;8.80;99.90;;;;;;5037418;28;20444;-92
2021/04/10 05:37:26;;;;;;;1.13;1.03;;;8.80;99.90;;;;;;5034783;28;20467;-92
2021/04/10 05:39:52;;;;;;;1.47;1.10;;;9.30;99.90;;;;;;5033369;28;20513;-88
2021/04/10 05:42:19;;;;;;;1.67;0.60;;;9.60;99.90;;;;;;5037470;28;20451;-92
2021/04/10 05:44:45;;;;;;;3.70;1.10;;;9.70;99.90;;;;;;4957469;29;20969;-93
2021/04/10 05:47:11;;;;;;;2.40;1.47;;;9.10;99.90;;;;;;4954953;29;20454;-91
2021/04/10 05:49:38;;;;;;;1.67;1.57;;;9.20;99.90;;;;;;4957114;29;20447;-92
2021/04/10 05:52:05;;;;;;;1.90;1.10;;;9.40;99.90;;;;;;4924886;29;20459;-90
2021/04/10 05:54:31;;;;;;;4.93;1.20;;;9.40;99.90;;;;;;4954676;29;20478;-86
2021/04/10 05:56:57;;;;;;;1.90;1.00;;;9.10;99.90;;;;;;4956968;29;20458;-94
2021/04/10 05:59:24;;;;;;;2.50;1.23;;;9.30;99.90;;;;;;4954344;29;20457;-90
2021/04/10 06:01:50;;;;;;;1.60;1.50;;;9.20;99.90;;;;;;4961026;28;20955;-92
2021/04/10 06:04:17;;;;;;;0.97;0.80;;;9.30;99.90;;;;;;5038686;28;20593;-89
2021/04/10 06:06:43;;;;;;;2.43;1.20;;;;;;;;;;5036035;28;20451;-89
2021/04/10 06:09:10;;;;;;;2.13;1.00;;;9.50;99.90;;;;;;5036422;28;20458;-92
2021/04/10 06:11:36;;;;;;;1.43;1.23;;;9.30;99.90;;;;;;5032251;28;20443;-91
2021/04/10 06:14:02;;;;;;;0.70;0.60;;;;;;;;;;5036856;28;21017;-93
2021/04/10 06:16:30;;;;;;;1.70;0.93;;;9.60;99.90;;;;;;5036542;28;20790;-92
2021/04/10 06:18:56;;;;;;;1.13;0.90;;;9.60;99.90;;;;;;5033447;28;20440;-88
2021/04/10 06:21:23;;;;;;;1.90;1.10;;;9.30;99.90;;;;;;5032886;28;20443;-89
2021/04/10 06:23:49;;;;;;;1.30;0.90;;;9.40;99.90;;;;;;5031082;28;20463;-91
2021/04/10 06:26:15;;;;;;;3.10;0.73;;;9.50;99.90;;;;;;5036459;28;20455;-89
2021/04/10 06:28:41;;;;;;;4.83;0.90;;;9.50;99.90;;;;;;5036492;28;20447;-90
2021/04/10 06:31:08;;;;;;;0.77;0.70;;;9.50;99.90;;;;;;5036216;28;20904;-88
2021/04/10 06:33:35;;;;;;;1.60;0.97;;;9.40;99.90;;;;;;5032692;28;20855;-93
2021/04/10 06:36:01;;;;;;;1.40;0.47;;;;;;;;;;5002081;28;20455;-91
2021/04/10 06:38:28;;;;;;;3.73;1.30;;;9.80;99.90;;;;;;5036865;28;20834;-91
2021/04/10 06:40:56;;;;;;;2.57;1.30;;;9.60;99.90;;;;;;5036704;28;20443;-92
2021/04/10 06:43:22;;;;;;;0.60;0.60;;;;;;;;;;5034225;28;20459;-92
2021/04/10 06:45:50;;;;;;;1.23;0.83;;;9.70;99.90;;;;;;5031984;28;20884;-88
2021/04/10 06:48:18;;;;;;;1.63;1.00;;;9.70;99.90;;;;;;5033154;28;20432;-91
2021/04/10 06:50:45;;;;;;;1.50;0.93;;;9.60;99.90;;;;;;5036515;28;20451;-88
2021/04/10 06:53:16;;;;;;;1.87;1.27;;;9.70;99.90;;;;;;5039349;28;20489;-89
2021/04/10 06:55:49;;;;;;;2.33;0.90;;;9.50;99.90;;;;;;5056060;28;20447;-89
2021/04/10 06:58:21;;;;;;;3.73;1.30;;;9.40;99.90;;;;;;5052919;28;20450;-95
2021/04/10 07:00:53;;;;;;;1.50;0.63;;;9.60;99.90;;;;;;5046246;28;20463;-91
2021/04/10 07:03:32;;;;;;;0.80;0.67;;;9.00;99.90;;;;;;5034871;28;20554;-92
2021/04/10 07:06:00;;;;;;;1.37;0.97;;;9.30;99.90;;;;;;5035208;28;20478;-91
2021/04/10 07:08:26;;;;;;;4.23;1.20;;;;;;;;;;5035470;28;20531;-93
2021/04/10 07:10:55;;;;;;;1.90;1.30;;;9.50;99.90;;;;;;5033211;28;20447;-91
2021/04/10 07:13:21;;;;;;;1.23;0.93;;;10.00;99.90;;;;;;5032261;28;20495;-92
2021/04/10 07:15:48;;;;;;;0.90;0.70;;;;;;;;;;5035967;28;20455;-91
2021/04/10 07:18:15;;;;;;;3.83;1.20;;;10.40;99.90;;;;;;5032003;28;20473;-91
2021/04/10 07:20:41;;;;;;;4.23;1.67;;;9.70;99.90;;;;;;5035559;28;20456;-92
2021/04/10 07:23:10;;;;;;;0.90;0.83;;;10.00;99.90;;;;;;5032870;28;20453;-91
2021/04/10 07:25:38;;;;;;;2.30;0.90;;;9.70;99.90;;;;;;5036041;28;20955;-92
2021/04/10 07:28:25;;;;;;;0.97;0.90;;;9.70;99.90;;;;;;5046029;28;20504;-87
2021/04/10 07:30:58;;;;;;;1.00;0.73;;;9.80;99.90;;;;;;5051279;28;20470;-91
2021/04/10 07:33:25;;;;;;;2.50;1.30;;;9.60;99.90;;;;;;5054069;28;20965;-90
2021/04/10 07:35:51;;;;;;;0.73;0.67;;;9.70;99.90;;;;;;5054845;28;20520;-89
2021/04/10 07:38:26;;;;;;;1.70;0.80;;;9.50;99.90;;;;;;5049133;28;20446;-87
2021/04/10 07:40:53;;;;;;;2.50;1.10;;;9.70;99.90;;;;;;5053799;28;20450;-87
2021/04/10 07:43:24;;;;;;;1.03;0.70;;;9.70;99.90;;;;;;5053880;28;20500;-86
2021/04/10 07:45:50;;;;;;;0.80;0.60;;;9.90;99.90;;;;;;5053718;28;20447;-88
2021/04/10 07:48:19;;;;;;;6.67;1.63;;;9.60;99.90;;;;;;5052610;28;20438;-85
2021/04/10 07:50:45;;;;;;;1.30;1.00;;;9.40;99.90;;;;;;5051174;28;20461;-88
2021/04/10 07:53:23;;;;;;;2.70;1.10;;;9.40;99.90;;;;;;5053781;28;20494;-88
2021/04/10 07:55:51;;;;;;;1.57;1.13;;;9.40;99.90;;;;;;5048285;28;20434;-87
2021/04/10 07:58:23;;;;;;;1.07;0.97;;;9.50;99.90;;;;;;5051032;28;20458;-89
2021/04/10 08:00:50;;;;;;;1.73;0.87;;;9.10;99.90;;;;;;5054359;28;20458;-88
2021/04/10 08:03:24;;;;;;;2.00;0.83;;;9.40;99.90;;;;;;5049847;28;20447;-87
2021/04/10 08:05:50;;;;;;;1.00;0.97;;;9.50;99.90;;;;;;5054000;28;20506;-91
2021/04/10 08:08:22;;;;;;;1.47;1.03;;;9.60;99.90;;;;;;5054212;28;20446;-90
2021/04/10 08:10:48;;;;;;;2.70;1.40;;;;;;;;;;5052152;28;20468;-89
2021/04/10 08:13:16;;;;;;;1.50;1.10;;;9.70;99.90;;;;;;5051600;28;20999;-91
2021/04/10 08:15:42;;;;;;;0.93;0.80;;;9.40;99.90;;;;;;5049505;28;20450;-89
2021/04/10 08:18:24;;;;;;;1.53;1.17;;;9.60;99.90;;;;;;5053071;28;20477;-90
2021/04/10 08:20:51;;;;;;;2.13;1.00;;;9.30;99.90;;;;;;5053153;28;20455;-87
2021/04/10 08:23:19;;;;;;;1.43;1.10;;;9.50;99.90;;;;;;5052935;28;20446;-87
2021/04/10 08:25:46;;;;;;;12.67;10.23;;;9.80;99.90;;;;;;5053038;28;20438;-88
2021/04/10 08:28:14;;;;;;;4.73;3.90;;;9.70;99.90;;;;;;5052805;28;20458;-86
2021/04/10 08:30:41;;;;;;;5.13;2.07;;;9.80;99.90;;;;;;5052598;28;20556;-87
2021/04/10 08:33:07;;;;;;;1.00;0.90;;;10.00;99.90;;;;;;5052111;28;20486;-89
2021/04/10 08:35:34;;;;;;;1.27;0.67;;;10.00;99.90;;;;;;5053067;28;20450;-87
2021/04/10 08:38:03;;;;;;;3.23;0.97;;;10.00;99.90;;;;;;5053094;28;20440;-86
2021/04/10 08:40:31;;;;;;;1.23;1.00;;;9.90;99.90;;;;;;5050649;28;20852;-88
2021/04/10 08:42:59;;;;;;;3.03;1.07;;;10.10;99.90;;;;;;5049996;28;20462;-89
2021/04/10 08:45:30;;;;;;;0.77;0.77;;;9.60;99.90;;;;;;5053105;28;20448;-89
2021/04/10 08:47:59;;;;;;;0.70;0.63;;;9.90;99.90;;;;;;5051912;28;20496;-87
2021/04/10 08:50:26;;;;;;;1.03;0.80;;;9.90;99.90;;;;;;5053386;28;20863;-89
2021/04/10 08:52:53;;;;;;;2.07;1.60;;;9.70;99.90;;;;;;5052767;28;21026;-87
2021/04/10 08:55:19;;;;;;;0.63;0.57;;;9.90;99.90;;;;;;5052483;28;20447;-86
2021/04/10 08:57:47;;;;;;;3.50;1.40;;;9.90;99.90;;;;;;5052023;28;20790;-88
2021/04/10 09:00:21;;;;;;;1.00;0.67;;;10.00;99.90;;;;;;5052710;28;20443;-88
2021/04/10 09:02:54;;;;;;;1.37;1.00;;;9.90;99.90;;;;;;5051412;28;20504;-88
2021/04/10 09:05:44;;;;;;;1.27;1.07;;;9.90;99.90;;;;;;5052691;28;20446;-90
2021/04/10 09:08:10;;;;;;;0.40;0.37;;;;;;;;;;5052566;28;20934;-89
2021/04/10 09:10:47;;;;;;;1.87;0.80;;;10.30;99.90;;;;;;5052576;28;20546;-90
2021/04/10 09:13:40;;;;;;;1.53;0.97;;;10.30;99.90;;;;;;5052732;28;20493;-88
2021/04/10 09:16:24;;;;;;;0.70;0.60;;;10.20;99.90;;;;;;5052385;28;20565;-89
2021/04/10 09:18:55;;;;;;;1.40;1.10;;;11.50;99.90;;;;;;5049136;28;20935;-90
2021/04/10 09:21:34;;;;;;;1.33;1.23;;;10.70;99.90;;;;;;5045992;28;20449;-87
2021/04/10 09:24:00;;;;;;;2.57;2.37;;;11.00;99.90;;;;;;5052212;28;20500;-88
2021/04/10 09:26:27;;;;;;;1.27;1.17;;;;;;;;;;5059364;23;20447;-88
2021/04/10 09:29:16;;;;;;;2.00;1.00;;;11.00;99.90;;;;;;5036762;28;20455;-90
2021/04/10 09:31:45;;;;;;;2.70;1.17;;;11.00;99.90;;;;;;5035144;28;20451;-88
2021/04/10 09:34:50;;;;;;;2.30;0.83;;;11.10;99.90;;;;;;5031948;28;20483;-89
2021/04/10 09:37:57;;;;;;;2.10;0.90;;;10.70;99.90;;;;;;5038082;28;20478;-90
2021/04/10 09:40:47;;;;;;;2.40;0.90;;;10.90;99.90;;;;;;5037686;28;20509;-92
2021/04/10 09:43:15;;;;;;;0.87;0.77;;;11.10;99.90;;;;;;5037379;28;20478;-92
2021/04/10 09:45:42;;;;;;;4.30;1.10;;;11.60;99.90;;;;;;5037367;28;20451;-87
2021/04/10 09:48:18;;;;;;;0.70;0.60;;;11.20;99.90;;;;;;5038519;28;20493;-89
2021/04/10 09:50:46;;;;;;;1.00;0.80;;;12.00;99.90;;;;;;5036856;28;20458;-89
2021/04/10 09:53:14;;;;;;;1.80;1.20;;;11.50;99.90;;;;;;5040987;28;20482;-89
2021/04/10 09:55:44;;;;;;;6.60;1.07;;;11.80;99.90;;;;;;5036056;28;20451;-92
2021/04/10 09:58:12;;;;;;;1.30;0.90;;;11.40;99.90;;;;;;5038944;28;20451;-90
2021/04/10 10:00:41;;;;;;;0.93;0.83;;;11.70;99.90;;;;;;5038459;28;20452;-87
2021/04/10 10:03:09;;;;;;;2.10;1.20;;;11.70;99.90;;;;;;5038469;28;20462;-91
2021/04/10 10:05:37;;;;;;;0.80;0.80;;;11.50;99.90;;;;;;5044059;28;20447;-91
2021/04/10 10:08:04;;;;;;;1.20;0.70;;;11.30;99.90;;;;;;5040633;28;20455;-92
2021/04/10 10:10:31;;;;;;;1.27;1.10;;;11.70;99.90;;;;;;5042828;28;20447;-87
2021/04/10 10:13:02;;;;;;;2.17;1.03;;;11.40;99.90;;;;;;5045942;28;20483;-91
2021/04/10 10:15:28;;;;;;;2.10;1.03;;;11.50;99.90;;;;;;5043572;28;20467;-89
2021/04/10 10:17:54;;;;;;;1.70;1.13;;;12.00;99.90;;;;;;5038378;28;20961;-89
2021/04/10 10:20:21;;;;;;;0.67;0.67;;;11.50;99.90;;;;;;5035376;28;20443;-90
2021/04/10 10:22:47;;;;;;;4.10;0.93;;;12.20;99.90;;;;;;4984388;28;20452;-86
2021/04/10 10:25:15;;;;;;;1.43;0.70;;;11.60;99.90;;;;;;5037698;28;20455;-88
2021/04/10 10:27:45;;;;;;;1.53;0.87;;;11.60;99.90;;;;;;5033934;28;20582;-89
2021/04/10 10:30:17;;;;;;;2.53;1.00;;;11.70;99.90;;;;;;5037266;28;20456;-87
2021/04/10 10:32:45;;;;;;;2.20;1.77;;;11.40;99.90;;;;;;5035344;28;20494;-88
2021/04/10 10:35:12;;;;;;;2.70;0.70;;;11.70;99.90;;;;;;5033996;28;20474;-90
2021/04/10 10:37:39;;;;;;;2.87;0.80;;;11.60;99.90;;;;;;5038312;28;20443;-90
2021/04/10 10:40:07;;;;;;;1.87;0.83;;;11.60;99.90;;;;;;5037172;28;20443;-91
2021/04/10 10:42:33;;;;;;;1.30;1.10;;;11.70;99.90;;;;;;5038455;28;20439;-92
2021/04/10 10:45:00;;;;;;;0.93;0.83;;;11.90;99.90;;;;;;5032355;28;20492;-91
2021/04/10 10:47:27;;;;;;;2.90;1.10;;;12.10;99.90;;;;;;5036468;28;20534;-91
2021/04/10 10:49:54;;;;;;;1.20;1.10;;;12.10;99.90;;;;;;5033559;28;20432;-91
2021/04/10 10:52:20;;;;;;;1.27;1.00;;;12.60;99.90;;;;;;5036403;28;20911;-92
2021/04/10 10:54:48;;;;;;;3.03;0.90;;;12.40;99.90;;;;;;5036838;28;20451;-91
2021/04/10 10:57:16;;;;;;;1.73;0.93;;;12.40;99.90;;;;;;4987601;28;20451;-92
2021/04/10 10:59:43;;;;;;;1.63;0.70;;;12.60;99.90;;;;;;5037905;28;20447;-91
2021/04/10 11:02:10;;;;;;;1.50;1.30;;;12.60;98.50;;;;;;5035693;28;20475;-91
2021/04/10 11:04:39;;;;;;;1.37;0.90;;;13.10;99.90;;;;;;5030121;28;20454;-86
2021/04/10 11:07:07;;;;;;;2.63;1.53;;;12.90;99.00;;;;;;4976065;28;20446;-88
2021/04/10 11:09:35;;;;;;;1.50;0.90;;;12.80;99.90;;;;;;4977302;28;20462;-92
2021/04/10 11:12:04;;;;;;;2.50;1.30;;;12.60;99.90;;;;;;4976348;28;20450;-89
2021/04/10 11:14:33;;;;;;;1.40;0.70;;;12.60;99.90;;;;;;4968823;28;20503;-87
2021/04/10 11:17:01;;;;;;;4.10;1.03;;;12.20;99.90;;;;;;4972336;28;21046;-86
2021/04/10 11:19:28;;;;;;;1.70;1.40;;;12.60;99.90;;;;;;4973124;28;20449;-85
2021/04/10 11:21:56;;;;;;;1.97;1.30;;;12.50;99.90;;;;;;4973339;28;20451;-87
2021/04/10 11:24:35;;;;;;;1.17;1.00;;;12.60;99.90;;;;;;4982227;28;20869;-86
2021/04/10 11:27:11;;;;;;;1.40;0.73;;;12.60;96.80;;;;;;5033953;28;20471;-89
2021/04/10 11:29:37;;;;;;;2.03;1.07;;;12.90;99.90;;;;;;5031887;28;20454;-87
2021/04/10 11:32:26;;;;;;;2.23;1.20;;;13.10;99.90;;;;;;5033410;28;20497;-89
2021/04/10 11:35:05;;;;;;;1.70;0.97;;;12.60;99.90;;;;;;5031068;28;20479;-90
2021/04/10 11:37:45;;;;;;;1.13;1.03;;;13.00;99.90;;;;;;5034553;28;20973;-90
2021/04/10 11:40:25;;;;;;;2.80;0.80;;;12.80;99.90;;;;;;5034160;28;20846;-86
2021/04/10 11:42:53;;;;;;;0.77;0.73;;;12.90;99.90;;;;;;5033873;28;20451;-85
2021/04/10 11:45:33;;;;;;;3.07;2.83;;;13.00;96.20;;;;;;5034577;28;20775;-88
2021/04/10 11:48:13;;;;;;;2.20;1.33;;;13.20;99.90;;;;;;5034868;28;20464;-94
2021/04/10 11:50:45;;;;;;;1.00;1.00;;;13.20;99.90;;;;;;5038836;28;20505;-90
2021/04/10 11:53:15;;;;;;;2.70;1.93;;;13.40;99.90;;;;;;5029783;28;20467;-91
2021/04/10 11:55:41;;;;;;;2.37;1.50;;;13.10;99.90;;;;;;5034947;28;20447;-88
2021/04/10 11:58:08;;;;;;;1.07;0.70;;;13.40;99.90;;;;;;5034123;28;20447;-91
2021/04/10 12:00:34;;;;;;;1.20;0.90;;;13.40;99.90;;;;;;5034189;28;20448;-89
2021/04/10 12:03:07;;;;;;;1.37;1.20;;;13.50;95.30;;;;;;5033035;28;20439;-90
2021/04/10 12:05:43;;;;;;;1.70;1.60;;;13.80;94.60;;;;;;5028568;28;20451;-88
2021/04/10 12:08:12;;;;;;;2.50;0.93;;;13.90;98.30;;;;;;5033558;28;20454;-88
2021/04/10 12:10:41;;;;;;;0.93;0.83;;;14.10;93.90;;;;;;5033883;28;20451;-88
2021/04/10 12:13:09;;;;;;;2.27;1.10;;;14.30;99.90;;;;;;5036137;28;20884;-92
2021/04/10 12:15:37;;;;;;;1.07;0.70;;;14.20;99.90;;;;;;5036384;28;20463;-91
2021/04/10 12:18:05;;;;;;;0.80;0.80;;;15.10;99.90;;;;;;5031377;28;20510;-92
2021/04/10 12:20:32;;;;;;;1.57;0.80;;;14.80;92.10;;;;;;5031035;28;20459;-93
2021/04/10 12:23:03;;;;;;;1.33;0.70;;;;;;;;;;5015534;28;20964;-92
2021/04/10 12:25:33;;;;;;;1.03;0.70;;;;;;;;;;5036939;28;20508;-91
2021/04/10 12:28:01;;;;;;;1.00;0.90;;;;;;;;;;5031414;28;20484;-90
2021/04/10 12:30:29;;;;;;;1.33;0.80;;;;;;;;;;5025459;28;20439;-91
2021/04/10 12:32:59;;;;;;;1.60;1.00;;;;;;;;;;5026828;28;20467;-92
2021/04/10 12:35:26;;;;;;;1.30;0.90;;;;;;;;;;5022511;28;20781;-92
2021/04/10 12:37:52;;;;;;;1.60;0.97;;;;;;;;;;5014429;28;20433;-92
2021/04/10 12:40:20;;;;;;;1.57;1.00;;;18.10;80.50;;;;;;5012444;28;20571;-90
2021/04/10 12:42:47;;;;;;;1.17;0.70;;;;;;;;;;5031518;28;20463;-86
2021/04/10 12:45:15;;;;;;;1.60;0.93;;;19.20;79.10;;;;;;5032803;28;20959;-89
2021/04/10 12:47:43;;;;;;;1.53;0.80;;;19.20;75.30;;;;;;5026487;28;20447;-89
2021/04/10 12:50:11;;;;;;;1.60;0.97;;;18.90;73.40;;;;;;5030071;28;20834;-85
2021/04/10 12:52:38;;;;;;;1.23;0.97;;;;;;;;;;5026560;28;20444;-88
2021/04/10 12:55:06;;;;;;;1.63;0.80;;;18.20;74.20;;;;;;5033414;28;20935;-90
2021/04/10 12:57:33;;;;;;;1.43;0.80;;;;;;;;;;5028084;28;20436;-91
2021/04/10 13:00:01;;;;;;;4.30;2.20;;;18.60;96.40;;;;;;5033267;28;20462;-92
2021/04/10 13:02:28;;;;;;;4.23;2.63;;;;;;;;;;5034525;28;20626;-93
2021/04/10 13:04:55;;;;;;;1.10;0.80;;;;;;;;;;5028495;28;20459;-90
2021/04/10 13:07:21;;;;;;;3.47;0.90;;;20.60;83.50;;;;;;5033450;28;20474;-91
2021/04/10 13:09:50;;;;;;;1.00;0.70;;;;;;;;;;5033442;28;20439;-90